createdAt,value
2024-03-04T00:01:06.190Z,3.87
2024-03-04T00:03:36.360Z,6.23
2024-03-04T00:06:09.778Z,3.17
2024-03-04T00:08:58.483Z,3.27
2024-03-04T00:11:27.978Z,3.77
2024-03-04T00:13:56.348Z,2.97
2024-03-04T00:16:25.399Z,5.07
2024-03-04T00:18:56.475Z,4.10
2024-03-04T00:21:25.282Z,6.53
2024-03-04T00:23:55.781Z,4.60
2024-03-04T00:26:46.393Z,3.43
2024-03-04T00:29:17.992Z,4.60
2024-03-04T00:31:48.074Z,5.07
2024-03-04T00:34:20.448Z,5.17
2024-03-04T00:36:49.936Z,4.80
2024-03-04T00:39:43.805Z,4.10
2024-03-04T00:42:12.453Z,6.80
2024-03-04T00:44:43.385Z,4.17
2024-03-04T00:47:12.252Z,4.80
2024-03-04T00:49:41.772Z,4.70
2024-03-04T00:52:11.052Z,6.20
2024-03-04T00:54:41.773Z,3.13
2024-03-04T00:57:12.008Z,4.07
2024-03-04T00:59:40.323Z,4.07
2024-03-04T01:02:08.401Z,3.90
2024-03-04T01:04:37.545Z,3.20
2024-03-04T01:07:08.676Z,5.27
2024-03-04T01:09:36.967Z,3.63
2024-03-04T01:12:08.285Z,3.13
2024-03-04T01:14:41.541Z,3.97
2024-03-04T01:17:14.242Z,1.87
2024-03-04T01:19:47.018Z,5.67
2024-03-04T01:22:19.047Z,4.47
2024-03-04T01:24:51.047Z,2.83
2024-03-04T01:27:21.526Z,2.23
2024-03-04T01:30:14.908Z,4.33
2024-03-04T01:32:44.449Z,4.47
2024-03-04T01:35:13.507Z,2.90
2024-03-04T01:37:43.638Z,2.50
2024-03-04T01:40:14.771Z,2.40
2024-03-04T01:42:48.080Z,3.13
2024-03-04T01:45:28.475Z,5.73
2024-03-04T01:48:00.602Z,3.93
2024-03-04T01:50:30.631Z,2.30
2024-03-04T01:53:02.608Z,2.30
2024-03-04T01:55:35.569Z,4.23
2024-03-04T01:58:05.885Z,2.57
2024-03-04T02:00:40.333Z,2.87
2024-03-04T02:03:13.114Z,2.77
2024-03-04T02:05:42.417Z,3.07
2024-03-04T02:08:14.359Z,3.07
2024-03-04T02:10:43.621Z,1.23
2024-03-04T02:13:12.648Z,1.33
2024-03-04T02:15:41.934Z,4.90
2024-03-04T02:18:10.813Z,3.97
2024-03-04T02:20:43.686Z,3.60
2024-03-04T02:23:16.061Z,2.17
2024-03-04T02:25:57.176Z,4.07
2024-03-04T02:28:29.709Z,5.13
2024-03-04T02:31:00.696Z,2.23
2024-03-04T02:33:31.231Z,1.60
2024-03-04T02:36:00.959Z,4.60
2024-03-04T02:38:32.719Z,6.97
2024-03-04T02:41:04.827Z,2.73
2024-03-04T02:43:33.412Z,7.90
2024-03-04T02:46:01.941Z,4.97
2024-03-04T02:48:30.147Z,2.57
2024-03-04T02:50:58.632Z,2.73
2024-03-04T02:53:47.207Z,1.17
2024-03-04T02:56:40.952Z,1.63
2024-03-04T02:59:09.700Z,2.90
2024-03-04T03:01:38.111Z,3.47
2024-03-04T03:04:06.829Z,3.57
2024-03-04T03:06:40.483Z,4.47
2024-03-04T03:09:10.994Z,3.50
2024-03-04T03:12:04.884Z,1.57
2024-03-04T03:14:39.448Z,5.10
2024-03-04T03:17:08.533Z,3.77
2024-03-04T03:19:41.713Z,3.30
2024-03-04T03:22:09.986Z,4.30
2024-03-04T03:24:38.366Z,6.30
2024-03-04T03:27:08.225Z,4.33
2024-03-04T03:29:36.966Z,1.90
2024-03-04T03:32:06.019Z,3.40
2024-03-04T03:34:55.126Z,2.50
2024-03-04T03:37:24.797Z,4.10
2024-03-04T03:39:53.973Z,3.77
2024-03-04T03:42:23.747Z,5.53
2024-03-04T03:44:52.296Z,3.30
2024-03-04T03:47:21.673Z,6.93
2024-03-04T03:49:51.240Z,3.57
2024-03-04T03:52:19.961Z,3.23
2024-03-04T03:54:53.422Z,1.97
2024-03-04T03:57:51.866Z,2.10
2024-03-04T04:00:29.776Z,1.77
2024-03-04T04:03:00.250Z,5.20
2024-03-04T04:05:29.007Z,5.37
2024-03-04T04:08:17.424Z,4.23
2024-03-04T04:11:06.189Z,3.03
2024-03-04T04:13:36.838Z,2.20
2024-03-04T04:16:06.106Z,2.53
2024-03-04T04:18:34.770Z,2.80
2024-03-04T04:21:22.950Z,1.73
2024-03-04T04:23:52.764Z,3.70
2024-03-04T04:26:25.609Z,3.47
2024-03-04T04:28:56.130Z,5.17
2024-03-04T04:31:26.134Z,3.10
2024-03-04T04:33:54.692Z,4.87
2024-03-04T04:36:23.728Z,4.43
2024-03-04T04:39:14.033Z,2.23
2024-03-04T04:42:02.270Z,3.80
2024-03-04T04:44:53.064Z,3.07
2024-03-04T04:47:24.048Z,2.20
2024-03-04T04:49:52.530Z,5.07
2024-03-04T04:52:21.420Z,1.93
2024-03-04T04:54:52.036Z,2.30
2024-03-04T04:57:40.295Z,3.00
2024-03-04T05:00:16.286Z,1.17
2024-03-04T05:02:45.355Z,4.70
2024-03-04T05:05:15.084Z,2.13
2024-03-04T05:08:07.386Z,4.83
2024-03-04T05:10:56.031Z,2.77
2024-03-04T05:13:25.402Z,3.47
2024-03-04T05:16:00.223Z,3.03
2024-03-04T05:18:29.312Z,7.70
2024-03-04T05:20:57.517Z,1.50
2024-03-04T05:23:34.016Z,1.17
2024-03-04T05:26:02.548Z,2.10
2024-03-04T05:28:30.944Z,7.00
2024-03-04T05:31:03.286Z,2.07
2024-03-04T05:33:31.949Z,2.53
2024-03-04T05:36:01.856Z,2.37
2024-03-04T05:38:31.374Z,1.77
2024-03-04T05:40:59.783Z,3.30
2024-03-04T05:43:29.641Z,6.63
2024-03-04T05:45:59.456Z,3.93
2024-03-04T05:48:35.430Z,1.37
2024-03-04T05:51:04.893Z,2.67
2024-03-04T05:53:33.071Z,2.53
2024-03-04T05:56:02.400Z,4.50
2024-03-04T05:58:34.473Z,2.57
2024-03-04T06:01:03.194Z,2.10
2024-03-04T06:03:32.710Z,2.57
2024-03-04T06:06:00.925Z,3.33
2024-03-04T06:08:28.965Z,6.63
2024-03-04T06:10:57.127Z,2.90
2024-03-04T06:13:25.312Z,2.93
2024-03-04T06:15:53.423Z,2.67
2024-03-04T06:18:21.446Z,4.37
2024-03-04T06:20:51.039Z,4.03
2024-03-04T06:23:19.157Z,6.63
2024-03-04T06:25:47.278Z,2.40
2024-03-04T06:28:15.715Z,5.27
2024-03-04T06:30:43.804Z,3.40
2024-03-04T06:33:12.506Z,5.03
2024-03-04T06:35:40.776Z,3.43
2024-03-04T06:38:10.940Z,3.47
2024-03-04T06:40:39.253Z,4.80
2024-03-04T06:43:21.571Z,6.27
2024-03-04T06:45:49.759Z,4.53
2024-03-04T06:48:18.090Z,4.30
2024-03-04T06:50:46.342Z,3.77
2024-03-04T06:53:15.941Z,5.80
2024-03-04T06:55:44.100Z,3.33
2024-03-04T06:58:12.352Z,4.13
2024-03-04T07:00:41.313Z,3.47
2024-03-04T07:03:09.384Z,4.43
2024-03-04T07:05:37.749Z,4.00
2024-03-04T07:08:07.465Z,3.87
2024-03-04T07:10:37.857Z,6.23
2024-03-04T07:13:06.313Z,2.83
2024-03-04T07:15:34.554Z,4.53
2024-03-04T07:18:03.052Z,4.67
2024-03-04T07:20:31.257Z,2.60
2024-03-04T07:22:59.556Z,3.57
2024-03-04T07:25:27.754Z,2.67
2024-03-04T07:27:57.383Z,6.07
2024-03-04T07:30:25.596Z,5.47
2024-03-04T07:32:53.693Z,3.53
2024-03-04T07:35:22.215Z,3.07
2024-03-04T07:37:50.351Z,4.43
2024-03-04T07:40:18.786Z,5.20
2024-03-04T07:42:46.935Z,3.73
2024-03-04T07:45:16.859Z,8.83
2024-03-04T07:47:45.132Z,3.03
2024-03-04T07:50:13.676Z,4.00
2024-03-04T07:52:41.871Z,4.70
2024-03-04T07:55:13.359Z,4.67
2024-03-04T07:57:44.129Z,5.33
2024-03-04T08:00:14.198Z,3.30
2024-03-04T08:02:45.324Z,3.67
2024-03-04T08:05:14.229Z,2.20
2024-03-04T08:07:42.499Z,8.07
2024-03-04T08:10:12.319Z,5.77
2024-03-04T08:12:40.440Z,2.47
2024-03-04T08:15:09.642Z,6.13
2024-03-04T08:17:42.500Z,4.47
2024-03-04T09:56:06.212Z,7.50
2024-03-04T09:58:36.131Z,8.03
2024-03-04T10:01:07.808Z,7.87
2024-03-04T10:03:38.998Z,8.87
2024-03-04T10:06:08.065Z,6.13
2024-03-04T10:08:37.785Z,8.23
2024-03-04T10:11:07.798Z,5.73
2024-03-04T10:13:38.440Z,9.47
2024-03-04T10:16:10.637Z,6.77
2024-03-04T10:18:39.768Z,7.63
2024-03-04T10:21:08.858Z,7.30
2024-03-04T10:23:40.466Z,8.20
2024-03-04T10:26:11.832Z,8.80
2024-03-04T10:28:41.888Z,9.07
2024-03-04T10:31:14.800Z,9.20
2024-03-04T10:33:44.009Z,7.03
2024-03-04T10:36:19.551Z,6.67
2024-03-04T10:38:49.023Z,8.03
2024-03-04T10:41:25.433Z,7.43
2024-03-04T10:43:54.814Z,7.50
2024-03-04T10:46:23.928Z,8.70
2024-03-04T10:48:52.574Z,8.00
2024-03-04T10:51:20.613Z,10.03
2024-03-04T10:53:50.356Z,9.40
2024-03-04T10:56:18.469Z,7.00
2024-03-04T10:58:54.136Z,6.57
2024-03-04T11:01:25.565Z,6.13
2024-03-04T11:03:59.060Z,6.50
2024-03-04T11:06:29.686Z,7.93
2024-03-04T11:09:00.133Z,7.67
2024-03-04T11:11:33.654Z,7.70
2024-03-04T11:14:06.427Z,7.93
2024-03-04T11:16:43.979Z,10.67
2024-03-04T11:19:24.208Z,12.80
2024-03-04T11:21:54.812Z,8.67
2024-03-04T11:24:23.811Z,10.10
2024-03-04T11:26:53.704Z,7.13
2024-03-04T11:29:24.271Z,7.40
2024-03-04T11:31:57.121Z,7.47
2024-03-04T11:34:25.651Z,6.03
2024-03-04T11:36:54.414Z,7.67
2024-03-04T11:39:24.543Z,10.83
2024-03-04T11:41:54.583Z,8.17
2024-03-04T11:44:29.127Z,8.73
2024-03-04T11:46:58.989Z,8.10
2024-03-04T11:49:28.722Z,9.23
2024-03-04T11:52:02.897Z,7.03
2024-03-04T11:54:49.459Z,11.00
2024-03-04T11:57:19.348Z,6.57
2024-03-04T12:00:03.348Z,8.13
2024-03-04T12:02:34.251Z,5.47
2024-03-04T12:05:03.962Z,10.77
2024-03-04T12:07:33.963Z,7.30
2024-03-04T12:10:12.812Z,7.90
2024-03-04T12:12:47.033Z,6.63
2024-03-04T12:15:16.956Z,5.50
2024-03-04T12:17:45.821Z,7.93
2024-03-04T12:20:15.574Z,8.03
2024-03-04T12:23:07.545Z,8.97
2024-03-04T12:25:36.568Z,7.80
2024-03-04T12:28:07.358Z,9.10
2024-03-04T12:30:41.558Z,9.80
2024-03-04T12:33:29.942Z,10.27
2024-03-04T12:36:19.282Z,7.73
2024-03-04T12:38:52.439Z,9.10
2024-03-04T12:41:21.510Z,6.90
2024-03-04T12:43:50.878Z,7.63
2024-03-04T12:46:21.466Z,5.07
2024-03-04T12:48:50.512Z,7.37
2024-03-04T12:51:19.319Z,7.50
2024-03-04T12:53:48.007Z,8.30
2024-03-04T12:56:18.764Z,6.53
2024-03-04T12:58:48.507Z,6.27
2024-03-04T13:01:18.511Z,7.17
2024-03-04T13:03:48.381Z,7.20
2024-03-04T13:06:16.489Z,8.77
2024-03-04T13:08:45.436Z,13.83
2024-03-04T13:11:13.681Z,9.70
2024-03-04T13:13:43.448Z,9.57
2024-03-04T13:16:13.136Z,9.53
2024-03-04T13:18:45.248Z,8.80
2024-03-04T13:21:15.138Z,7.83
2024-03-04T13:23:46.168Z,8.80
2024-03-04T13:26:15.142Z,8.97
2024-03-04T13:28:46.178Z,8.83
2024-03-04T13:31:15.395Z,8.73
2024-03-04T13:33:44.045Z,7.40
2024-03-04T13:36:17.518Z,8.53
2024-03-04T13:38:46.117Z,7.50
2024-03-04T13:41:14.688Z,12.77
2024-03-04T13:43:43.501Z,7.77
2024-03-04T13:46:11.947Z,7.00
2024-03-04T13:48:40.444Z,6.23
2024-03-04T13:51:09.151Z,7.03
2024-03-04T13:53:43.500Z,5.23
2024-03-04T13:56:14.405Z,6.33
2024-03-04T13:58:42.815Z,6.37
2024-03-04T14:01:11.600Z,7.17
2024-03-04T14:03:40.427Z,5.10
2024-03-04T14:06:09.085Z,6.70
2024-03-04T14:08:39.132Z,6.97
2024-03-04T14:11:27.542Z,6.30
2024-03-04T14:13:56.608Z,5.37
2024-03-04T14:16:24.767Z,5.23
2024-03-04T14:18:54.397Z,6.67
2024-03-04T14:21:24.508Z,6.97
2024-03-04T14:23:54.544Z,6.30
2024-03-04T14:26:24.404Z,5.77
2024-03-04T14:28:53.294Z,7.63
2024-03-04T14:31:21.841Z,5.30
2024-03-04T14:33:51.634Z,6.60
2024-03-04T14:36:20.145Z,3.60
2024-03-04T14:38:48.700Z,6.73
2024-03-04T14:41:20.038Z,7.73
2024-03-04T14:43:50.572Z,4.97
2024-03-04T14:46:19.230Z,7.03
2024-03-04T14:48:49.657Z,6.57
2024-03-04T14:51:18.034Z,4.38
2024-03-04T14:53:46.231Z,6.50
2024-03-04T14:56:14.516Z,5.50
2024-03-04T14:58:44.893Z,4.43
2024-03-04T15:01:13.497Z,4.85
2024-03-04T15:03:41.801Z,5.78
2024-03-04T15:06:10.480Z,7.32
2024-03-04T15:08:39.619Z,4.15
2024-03-04T15:11:14.247Z,4.27
2024-03-04T15:13:45.976Z,4.13
2024-03-04T15:16:14.995Z,4.43
2024-03-04T15:18:43.420Z,4.72
2024-03-04T15:21:11.714Z,7.03
2024-03-04T15:23:40.293Z,5.47
2024-03-04T15:26:08.660Z,3.83
2024-03-04T15:28:37.920Z,4.77
2024-03-04T15:31:07.725Z,5.20
2024-03-04T15:33:36.399Z,4.87
2024-03-04T15:36:13.505Z,3.93
2024-03-04T15:38:48.157Z,3.37
2024-03-04T15:41:17.361Z,6.10
2024-03-04T15:43:46.101Z,2.90
2024-03-04T15:46:24.091Z,2.70
2024-03-04T15:48:53.388Z,3.43
2024-03-04T15:51:27.389Z,4.33
2024-03-04T15:53:55.978Z,3.10
2024-03-04T15:56:24.146Z,3.00
2024-03-04T15:58:52.504Z,5.47
2024-03-04T16:01:25.204Z,2.80
2024-03-04T16:03:53.827Z,3.13
2024-03-04T16:06:30.946Z,4.70
2024-03-04T16:08:59.441Z,2.30
2024-03-04T16:11:29.014Z,2.23
2024-03-04T16:13:58.078Z,2.87
2024-03-04T16:16:27.812Z,2.53
2024-03-04T16:18:56.807Z,6.67
2024-03-04T16:21:25.691Z,4.27
2024-03-04T16:23:55.086Z,3.83
2024-03-04T16:26:24.671Z,3.47
2024-03-04T16:28:57.015Z,3.47
2024-03-04T16:31:27.297Z,2.97
2024-03-04T16:33:59.067Z,2.50
2024-03-04T16:36:50.190Z,2.83
2024-03-04T16:39:19.320Z,3.33
2024-03-04T16:41:48.570Z,3.60
2024-03-04T16:44:17.056Z,3.33
2024-03-04T16:46:47.129Z,5.20
2024-03-04T16:49:18.456Z,3.67
2024-03-04T16:51:48.905Z,3.60
2024-03-04T16:54:17.419Z,2.43
2024-03-04T16:56:49.511Z,2.43
2024-03-04T16:59:18.718Z,10.03
2024-03-04T17:01:49.766Z,4.37
2024-03-04T17:04:22.036Z,7.13
2024-03-04T17:06:50.466Z,3.77
2024-03-04T17:09:19.469Z,6.27
2024-03-04T17:11:47.999Z,1.97
2024-03-04T17:14:16.536Z,6.07
2024-03-04T17:16:45.690Z,2.47
2024-03-04T17:19:14.854Z,3.57
2024-03-04T17:21:46.489Z,3.07
2024-03-04T17:24:15.303Z,4.03
2024-03-04T17:26:44.853Z,1.93
2024-03-04T17:29:13.742Z,3.53
2024-03-04T17:31:42.767Z,5.27
2024-03-04T17:34:11.193Z,5.23
2024-03-04T17:36:41.467Z,5.28
2024-03-04T17:39:12.876Z,2.03
2024-03-04T17:41:42.513Z,3.03
2024-03-04T17:44:13.947Z,5.53
2024-03-04T17:46:44.626Z,6.70
2024-03-04T17:49:13.279Z,4.30
2024-03-04T17:51:44.491Z,4.70
2024-03-04T17:54:15.004Z,4.40
2024-03-04T17:56:46.083Z,3.50
2024-03-04T17:59:15.846Z,2.03
2024-03-04T18:01:47.202Z,2.57
2024-03-04T18:04:18.064Z,3.53
2024-03-04T18:06:47.068Z,3.63
2024-03-04T18:12:47.228Z,3.97
2024-03-04T18:15:18.432Z,4.10
2024-03-04T18:17:46.928Z,3.37
2024-03-04T18:20:15.577Z,4.30
2024-03-04T18:22:44.125Z,4.87
2024-03-04T18:25:13.935Z,4.63
2024-03-04T18:27:42.585Z,5.10
2024-03-04T18:30:13.188Z,6.30
2024-03-04T18:32:42.412Z,6.90
2024-03-04T18:35:22.993Z,4.60
2024-03-04T18:37:51.666Z,5.67
2024-03-04T18:40:22.354Z,6.17
2024-03-04T18:42:51.259Z,6.43
2024-03-04T18:45:21.952Z,7.87
2024-03-04T18:47:50.592Z,4.67
2024-03-04T18:50:23.667Z,7.93
2024-03-04T18:52:54.128Z,8.70
2024-03-04T18:55:24.012Z,10.53
2024-03-04T18:57:57.066Z,5.07
2024-03-04T19:00:28.812Z,4.90
2024-03-04T19:03:01.718Z,6.23
2024-03-04T19:05:50.621Z,5.57
2024-03-04T19:08:22.492Z,4.93
2024-03-04T19:11:08.037Z,9.73
2024-03-04T19:14:14.470Z,6.20
2024-03-04T19:16:48.606Z,8.20
2024-03-04T19:19:22.347Z,9.20
2024-03-04T19:21:54.057Z,6.37
2024-03-04T19:24:47.042Z,6.97
2024-03-04T19:27:25.927Z,9.67
2024-03-04T19:30:24.026Z,8.00
2024-03-04T19:33:15.799Z,10.23
2024-03-04T19:35:55.106Z,7.63
2024-03-04T19:38:26.511Z,8.90
2024-03-04T19:41:04.146Z,8.47
2024-03-04T19:43:41.143Z,7.40
2024-03-04T19:46:17.979Z,7.00
2024-03-04T19:48:49.936Z,8.17
2024-03-04T19:51:20.313Z,6.40
2024-03-04T19:54:04.239Z,8.70
2024-03-04T19:56:39.404Z,4.63
2024-03-04T19:59:13.065Z,8.43
2024-03-04T20:01:45.502Z,5.53
2024-03-04T20:04:37.910Z,6.37
2024-03-04T20:07:07.089Z,7.23
2024-03-04T20:09:40.688Z,8.47
2024-03-04T20:12:14.584Z,6.90
2024-03-04T20:14:45.704Z,6.60
2024-03-04T20:17:15.646Z,5.87
2024-03-04T20:22:57.901Z,6.77
2024-03-04T20:25:47.796Z,8.57
2024-03-04T20:28:28.337Z,6.40
2024-03-04T20:31:37.419Z,8.77
2024-03-04T20:34:09.060Z,7.33
2024-03-04T20:36:39.029Z,7.53
2024-03-04T20:39:50.762Z,8.57
2024-03-04T20:42:21.150Z,7.50
2024-03-04T20:44:52.891Z,7.87
2024-03-04T20:47:23.006Z,8.30
2024-03-04T20:49:54.322Z,11.47
2024-03-04T20:52:26.389Z,8.47
2024-03-04T20:54:56.330Z,8.83
2024-03-04T20:57:59.013Z,10.30
2024-03-04T21:00:32.113Z,12.80
2024-03-04T21:03:02.868Z,9.27
2024-03-04T21:05:52.388Z,8.60
2024-03-04T21:09:03.273Z,10.60
2024-03-04T21:11:34.171Z,8.93
2024-03-04T21:14:28.067Z,8.50
2024-03-04T21:17:05.001Z,9.00
2024-03-04T21:19:38.268Z,8.90
2024-03-04T21:22:09.191Z,8.93
2024-03-04T21:24:59.559Z,12.27
2024-03-04T21:27:35.046Z,8.10
2024-03-04T21:30:06.799Z,10.13
2024-03-04T21:32:58.615Z,9.87
2024-03-04T21:35:29.811Z,9.57
2024-03-04T21:38:08.077Z,13.10
2024-03-04T21:40:40.078Z,11.30
2024-03-04T21:43:30.208Z,10.70
2024-03-04T21:46:19.470Z,14.30
2024-03-04T21:48:51.394Z,11.80
2024-03-04T21:51:23.223Z,13.00
2024-03-04T21:53:59.566Z,9.73
2024-03-04T21:56:29.476Z,9.97
2024-03-04T21:59:20.944Z,8.77
2024-03-04T22:02:11.192Z,10.77
2024-03-04T22:04:42.102Z,14.07
2024-03-04T22:09:57.800Z,13.67
2024-03-04T22:12:31.053Z,12.70
2024-03-04T22:15:19.745Z,12.63
2024-03-04T22:17:49.159Z,12.93
2024-03-04T22:20:18.417Z,11.90
2024-03-04T22:22:51.397Z,14.00
2024-03-04T22:25:21.037Z,9.87
2024-03-04T22:27:54.450Z,12.17
2024-03-04T22:30:28.320Z,11.77
2024-03-04T22:32:59.647Z,17.63
2024-03-04T22:35:37.527Z,12.93
2024-03-04T22:38:14.728Z,10.00
2024-03-04T22:40:43.718Z,9.17
2024-03-04T22:43:13.761Z,10.77
2024-03-04T22:45:55.269Z,12.13
2024-03-04T22:48:28.774Z,10.40
2024-03-04T22:51:02.717Z,11.83
2024-03-04T22:53:35.125Z,9.03
2024-03-04T22:56:07.549Z,9.53
2024-03-04T22:58:36.614Z,9.10
2024-03-04T23:01:27.122Z,10.37
2024-03-04T23:03:56.847Z,13.33
2024-03-04T23:06:27.439Z,10.43
2024-03-04T23:08:58.373Z,10.07
2024-03-04T23:11:28.610Z,11.20
2024-03-04T23:13:57.415Z,9.43
2024-03-04T23:16:30.393Z,12.20
2024-03-04T23:19:02.622Z,10.43
2024-03-04T23:21:38.962Z,11.30
2024-03-04T23:24:14.710Z,12.20
2024-03-04T23:26:44.771Z,8.90
2024-03-04T23:29:14.827Z,15.43
2024-03-04T23:32:14.295Z,9.90
2024-03-04T23:34:47.143Z,13.07
2024-03-04T23:37:19.749Z,12.53
2024-03-04T23:39:50.791Z,12.73
2024-03-04T23:42:23.445Z,13.63
2024-03-04T23:45:06.239Z,10.80
2024-03-04T23:47:36.508Z,14.57
2024-03-04T23:50:30.095Z,12.80
2024-03-04T23:53:25.394Z,14.20
2024-03-04T23:56:46.648Z,12.93
2024-03-04T23:59:16.447Z,16.67
